createdAt,value
2022-09-10T00:02:32.706Z,12.96
2022-09-10T00:07:54.604Z,12.99
2022-09-10T00:13:22.164Z,12.91
2022-09-10T00:18:43.950Z,12.96
2022-09-10T00:24:06.821Z,13.06
2022-09-10T00:29:28.632Z,12.92
2022-09-10T00:34:50.419Z,12.82
2022-09-10T00:40:13.431Z,12.79
2022-09-10T00:45:35.437Z,12.89
2022-09-10T00:51:04.913Z,12.79
2022-09-10T00:56:28.105Z,12.79
2022-09-10T01:01:50.137Z,12.84
2022-09-10T01:07:13.845Z,12.94
2022-09-10T01:13:07.646Z,12.74
2022-09-10T01:18:54.306Z,12.83
2022-09-10T01:24:34.436Z,12.82
2022-09-10T01:30:05.427Z,12.71
2022-09-10T01:35:33.320Z,12.81
2022-09-10T01:40:55.560Z,12.77
2022-09-10T01:46:54.991Z,12.68
2022-09-10T01:52:35.164Z,12.77
2022-09-10T01:58:13.250Z,12.86
2022-09-10T02:03:38.987Z,12.78
2022-09-10T02:09:02.766Z,12.71
2022-09-10T02:14:24.946Z,12.64
2022-09-10T02:19:49.070Z,12.66
2022-09-10T02:25:11.262Z,12.73
2022-09-10T02:30:33.071Z,12.70
2022-09-10T02:35:54.920Z,12.63
2022-09-10T02:41:16.695Z,12.54
2022-09-10T02:46:38.496Z,12.56
2022-09-10T02:52:00.858Z,12.36
2022-09-10T02:57:22.666Z,12.45
2022-09-10T03:02:44.560Z,12.41
2022-09-10T03:08:06.516Z,12.42
2022-09-10T03:13:29.275Z,12.50
2022-09-10T03:18:51.078Z,12.53
2022-09-10T03:24:15.304Z,12.33
2022-09-10T03:29:37.444Z,12.52
2022-09-10T03:34:59.231Z,12.45
2022-09-10T03:40:21.050Z,12.54
2022-09-10T03:45:42.902Z,12.73
2022-09-10T03:51:05.340Z,12.64
2022-09-10T03:56:27.705Z,12.48
2022-09-10T04:01:49.528Z,12.68
2022-09-10T04:07:11.383Z,12.64
2022-09-10T04:12:33.194Z,12.66
2022-09-10T04:17:55.010Z,12.74
2022-09-10T04:23:16.901Z,12.66
2022-09-10T04:28:38.877Z,12.59
2022-09-10T04:34:00.748Z,12.59
2022-09-10T04:39:22.542Z,12.64
2022-09-10T04:44:44.405Z,12.66
2022-09-10T04:50:07.078Z,12.66
2022-09-10T04:55:31.000Z,12.68
2022-09-10T05:00:52.923Z,12.58
2022-09-10T05:06:14.762Z,12.83
2022-09-10T05:11:36.669Z,12.75
2022-09-10T05:16:58.563Z,12.72
2022-09-10T05:22:20.482Z,12.73
2022-09-10T05:27:42.266Z,12.71
2022-09-10T05:33:04.392Z,12.94
2022-09-10T05:38:26.168Z,12.74
2022-09-10T05:43:48.618Z,12.86
2022-09-10T05:49:10.722Z,12.74
2022-09-10T05:54:32.527Z,12.75
2022-09-10T05:59:54.354Z,12.83
2022-09-10T06:05:16.404Z,12.77
2022-09-10T06:10:38.219Z,12.77
2022-09-10T06:16:01.122Z,12.84
2022-09-10T06:21:27.521Z,12.80
2022-09-10T06:26:50.538Z,12.65
2022-09-10T06:32:12.298Z,12.68
2022-09-10T06:37:34.061Z,12.91
2022-09-10T06:42:55.843Z,12.80
2022-09-10T06:48:38.599Z,12.91
2022-09-10T06:54:00.022Z,13.01
2022-09-10T06:59:21.799Z,13.21
2022-09-10T07:04:43.627Z,12.97
2022-09-10T07:10:05.837Z,13.14
2022-09-10T07:15:28.407Z,12.92
2022-09-10T07:20:50.406Z,13.00
2022-09-10T07:26:13.794Z,13.20
2022-09-10T07:31:37.242Z,13.10
2022-09-10T07:36:59.006Z,13.30
2022-09-10T07:42:20.805Z,13.29
2022-09-10T07:47:44.036Z,13.25
2022-09-10T07:53:05.999Z,13.43
2022-09-10T07:58:29.608Z,13.63
2022-09-10T08:03:51.487Z,13.42
2022-09-10T08:09:13.274Z,13.68
2022-09-10T08:14:35.690Z,13.52
2022-09-10T08:19:57.695Z,13.75
2022-09-10T08:25:19.489Z,14.00
2022-09-10T08:30:41.313Z,13.86
2022-09-10T08:36:04.512Z,13.79
2022-09-10T08:41:38.270Z,13.97
2022-09-10T08:47:06.526Z,13.80
2022-09-10T08:52:28.270Z,13.53
2022-09-10T08:58:00.264Z,13.89
2022-09-10T09:03:35.682Z,13.99
2022-09-10T09:08:58.767Z,14.16
2022-09-10T09:14:44.818Z,14.25
2022-09-10T09:20:15.255Z,14.24
2022-09-10T09:25:47.348Z,14.15
2022-09-10T09:31:41.396Z,14.28
2022-09-10T09:37:11.491Z,14.48
2022-09-10T09:42:55.794Z,14.74
2022-09-10T09:48:19.472Z,14.96
2022-09-10T09:53:45.092Z,14.81
2022-09-10T09:59:24.648Z,14.50
2022-09-10T10:05:14.278Z,14.75
2022-09-10T10:10:36.106Z,14.65
2022-09-10T10:16:15.297Z,14.61
2022-09-10T10:21:37.146Z,14.62
2022-09-10T10:26:59.868Z,14.57
2022-09-10T10:32:28.250Z,14.62
2022-09-10T10:38:27.739Z,14.60
2022-09-10T10:44:20.635Z,14.35
2022-09-10T10:50:09.560Z,14.65
2022-09-10T10:55:46.879Z,14.58
2022-09-10T11:01:21.445Z,14.67
2022-09-10T11:06:51.768Z,14.86
2022-09-10T11:12:21.128Z,14.63
2022-09-10T11:17:57.645Z,14.49
2022-09-10T11:23:28.634Z,13.94
2022-09-10T11:29:06.114Z,14.49
2022-09-10T11:34:45.110Z,14.89
2022-09-10T11:40:17.958Z,14.85
2022-09-10T11:45:47.031Z,14.92
2022-09-10T11:51:24.010Z,14.17
2022-09-10T11:56:57.799Z,14.33
2022-09-10T12:02:25.413Z,14.48
2022-09-10T12:07:47.167Z,14.31
2022-09-10T12:13:13.276Z,14.41
2022-09-10T12:18:43.888Z,14.32
2022-09-10T12:24:29.481Z,14.26
2022-09-10T12:29:51.296Z,14.31
2022-09-10T12:35:31.136Z,14.55
2022-09-10T12:40:52.922Z,14.43
2022-09-10T12:46:14.690Z,14.49
2022-09-10T12:51:51.521Z,14.30
2022-09-10T12:57:20.388Z,14.14
2022-09-10T13:03:06.446Z,14.31
2022-09-10T13:08:33.491Z,14.54
2022-09-10T13:14:01.345Z,14.48
2022-09-10T13:19:23.079Z,14.35
2022-09-10T13:25:03.401Z,14.26
2022-09-10T13:30:26.800Z,14.27
2022-09-10T13:36:32.793Z,14.38
2022-09-10T13:42:00.376Z,14.51
2022-09-10T13:47:40.740Z,14.56
2022-09-10T13:53:06.086Z,14.72
2022-09-10T13:58:34.940Z,14.70
2022-09-10T14:03:56.713Z,14.69
2022-09-10T14:09:20.170Z,14.60
2022-09-10T14:14:50.045Z,14.58
2022-09-10T14:20:26.652Z,14.70
2022-09-10T14:25:48.355Z,13.98
2022-09-10T14:31:26.777Z,14.45
2022-09-10T14:36:48.598Z,14.57
2022-09-10T14:42:22.083Z,14.29
2022-09-10T14:47:51.610Z,14.29
2022-09-10T14:53:13.529Z,14.19
2022-09-10T14:58:35.517Z,14.36
2022-09-10T15:03:58.216Z,14.46
2022-09-10T15:09:20.441Z,14.38
2022-09-10T15:14:42.259Z,14.28
2022-09-10T15:20:04.316Z,14.11
2022-09-10T15:25:35.965Z,14.02
2022-09-10T15:31:00.020Z,13.97
2022-09-10T15:36:22.584Z,13.90
2022-09-10T15:41:44.669Z,13.76
2022-09-10T15:47:06.684Z,13.88
2022-09-10T15:52:28.444Z,13.99
2022-09-10T15:57:51.779Z,13.90
2022-09-10T16:03:13.611Z,13.91
2022-09-10T16:08:35.841Z,14.00
2022-09-10T16:14:04.056Z,13.83
2022-09-10T16:19:26.787Z,13.61
2022-09-10T16:24:48.569Z,13.34
2022-09-10T16:30:12.870Z,13.49
2022-09-10T16:35:35.173Z,13.57
2022-09-10T16:41:03.930Z,13.56
2022-09-10T16:46:27.196Z,13.31
2022-09-10T16:51:49.223Z,13.45
2022-09-10T16:57:11.024Z,13.49
2022-09-10T17:02:32.874Z,13.36
2022-09-10T17:07:54.771Z,13.25
2022-09-10T17:13:16.538Z,13.11
2022-09-10T17:18:38.400Z,13.17
2022-09-10T17:24:01.473Z,13.26
2022-09-10T17:29:24.975Z,13.22
2022-09-10T17:34:46.781Z,13.28
2022-09-10T17:40:09.253Z,13.30
2022-09-10T17:45:31.024Z,13.49
2022-09-10T17:50:52.814Z,13.47
2022-09-10T17:56:17.035Z,13.48
2022-09-10T18:01:39.145Z,13.55
2022-09-10T18:07:01.072Z,13.58
2022-09-10T18:12:22.860Z,13.57
2022-09-10T18:17:44.647Z,13.65
2022-09-10T18:23:06.412Z,13.52
2022-09-10T18:28:28.228Z,13.31
2022-09-10T18:33:50.269Z,13.39
2022-09-10T18:39:12.303Z,13.45
2022-09-10T18:44:34.902Z,13.34
2022-09-10T18:49:56.865Z,13.39
2022-09-10T18:55:18.741Z,13.40
2022-09-10T19:00:40.588Z,13.36
2022-09-10T19:06:06.867Z,13.26
2022-09-10T19:11:34.749Z,13.09
2022-09-10T19:16:58.868Z,13.24
2022-09-10T19:22:20.674Z,13.16
2022-09-10T19:27:42.432Z,13.11
2022-09-10T19:33:04.218Z,12.99
2022-09-10T19:38:47.256Z,12.96
2022-09-10T19:44:09.105Z,13.13
2022-09-10T19:49:31.303Z,13.21
2022-09-10T19:54:53.082Z,13.02
2022-09-10T20:00:36.248Z,12.95
2022-09-10T20:05:59.099Z,12.81
2022-09-10T20:11:24.038Z,12.73
2022-09-10T20:16:46.045Z,12.89
2022-09-10T20:22:07.807Z,12.86
2022-09-10T20:27:29.876Z,12.91
2022-09-10T20:32:51.648Z,12.97
2022-09-10T20:38:13.459Z,12.93
2022-09-10T20:43:35.348Z,12.75
2022-09-10T20:48:59.108Z,12.73
2022-09-10T20:54:20.854Z,12.95
2022-09-10T20:59:42.629Z,12.93
2022-09-10T21:05:04.926Z,12.99
2022-09-10T21:10:26.708Z,13.11
2022-09-10T21:15:48.543Z,13.16
2022-09-10T21:21:13.298Z,13.01
2022-09-10T21:26:37.528Z,12.94
2022-09-10T21:31:59.337Z,12.79
2022-09-10T21:37:21.144Z,12.59
2022-09-10T21:42:43.905Z,12.79
2022-09-10T21:48:05.703Z,12.82
2022-09-10T21:53:28.018Z,12.93
2022-09-10T21:58:49.929Z,12.82
2022-09-10T22:04:12.944Z,12.82
2022-09-10T22:09:34.763Z,12.89
2022-09-10T22:14:56.515Z,12.94
2022-09-10T22:20:18.263Z,12.71
2022-09-10T22:25:40.214Z,12.94
2022-09-10T22:31:13.839Z,12.93
2022-09-10T22:36:38.135Z,12.88
2022-09-10T22:41:59.885Z,12.86
2022-09-10T22:47:21.648Z,12.82
2022-09-10T22:52:43.430Z,12.79
2022-09-10T22:58:05.216Z,12.78
2022-09-10T23:03:27.010Z,12.88
2022-09-10T23:08:51.100Z,12.94
2022-09-10T23:14:18.054Z,12.97
2022-09-10T23:19:39.841Z,12.83
2022-09-10T23:25:01.625Z,12.83
2022-09-10T23:30:23.412Z,12.85
2022-09-10T23:35:50.042Z,12.58
2022-09-10T23:41:12.159Z,12.29
2022-09-10T23:46:34.688Z,12.51
2022-09-10T23:51:56.482Z,12.71
2022-09-10T23:57:18.252Z,12.81
